createdAt,value
2023-07-24T00:00:00.585Z,20.57
2023-07-24T00:01:00.597Z,20.57
2023-07-24T00:02:00.567Z,20.57
2023-07-24T00:03:01.347Z,20.57
2023-07-24T00:04:00.719Z,20.57
2023-07-24T00:05:00.581Z,20.52
2023-07-24T00:06:00.573Z,20.52
2023-07-24T00:07:00.743Z,20.52
2023-07-24T00:08:00.596Z,20.52
2023-07-24T00:09:00.570Z,20.52
2023-07-24T00:10:00.550Z,20.47
2023-07-24T00:11:00.557Z,20.47
2023-07-24T00:12:00.559Z,20.47
2023-07-24T00:13:00.544Z,20.47
2023-07-24T00:14:00.516Z,20.47
2023-07-24T00:15:00.573Z,20.41
2023-07-24T00:16:00.528Z,20.41
2023-07-24T00:17:00.568Z,20.41
2023-07-24T00:18:00.678Z,20.41
2023-07-24T00:19:00.528Z,20.41
2023-07-24T00:20:00.643Z,20.39
2023-07-24T00:21:00.604Z,20.39
2023-07-24T00:22:00.533Z,20.39
2023-07-24T00:23:00.585Z,20.39
2023-07-24T00:24:00.664Z,20.39
2023-07-24T00:25:00.588Z,20.32
2023-07-24T00:26:00.589Z,20.32
2023-07-24T00:27:00.539Z,20.32
2023-07-24T00:28:00.530Z,20.32
2023-07-24T00:29:00.576Z,20.32
2023-07-24T00:30:00.550Z,20.26
2023-07-24T00:31:00.591Z,20.26
2023-07-24T00:32:00.547Z,20.26
2023-07-24T00:33:00.571Z,20.26
2023-07-24T00:34:00.549Z,20.26
2023-07-24T00:35:00.528Z,20.14
2023-07-24T00:36:00.567Z,20.14
2023-07-24T00:37:00.640Z,20.14
2023-07-24T00:38:00.585Z,20.14
2023-07-24T00:39:00.576Z,20.14
2023-07-24T00:40:02.409Z,20.07
2023-07-24T00:41:00.578Z,20.07
2023-07-24T00:42:01.505Z,20.07
2023-07-24T00:43:00.546Z,20.07
2023-07-24T00:44:00.519Z,20.07
2023-07-24T00:45:01.928Z,20.05
2023-07-24T00:46:01.498Z,20.05
2023-07-24T00:47:00.708Z,20.05
2023-07-24T00:48:00.556Z,20.05
2023-07-24T00:49:01.078Z,20.05
2023-07-24T00:50:00.566Z,20.01
2023-07-24T00:51:01.567Z,20.01
2023-07-24T00:52:00.591Z,20.01
2023-07-24T00:53:00.543Z,20.01
2023-07-24T00:54:01.563Z,20.01
2023-07-24T00:55:00.747Z,19.95
2023-07-24T00:56:00.758Z,19.95
2023-07-24T00:57:01.088Z,19.95
2023-07-24T00:58:01.772Z,19.95
2023-07-24T00:59:01.049Z,19.95
2023-07-24T01:00:00.640Z,19.87
2023-07-24T01:01:00.666Z,19.87
2023-07-24T01:02:00.803Z,19.87
2023-07-24T01:03:00.618Z,19.87
2023-07-24T01:04:01.060Z,19.87
2023-07-24T01:05:01.277Z,19.81
2023-07-24T01:06:01.892Z,19.81
2023-07-24T01:07:00.558Z,19.81
2023-07-24T01:08:00.597Z,19.81
2023-07-24T01:09:00.590Z,19.81
2023-07-24T01:10:00.545Z,19.77
2023-07-24T01:11:03.717Z,19.77
2023-07-24T01:12:04.834Z,19.77
2023-07-24T01:13:00.539Z,19.77
2023-07-24T01:14:09.578Z,19.77
2023-07-24T01:15:09.195Z,19.68
2023-07-24T01:16:03.537Z,19.68
2023-07-24T01:17:02.543Z,19.68
2023-07-24T01:18:03.530Z,19.68
2023-07-24T01:19:00.884Z,19.68
2023-07-24T01:20:03.941Z,19.65
2023-07-24T01:21:01.401Z,19.65
2023-07-24T01:22:08.159Z,19.65
2023-07-24T01:23:00.523Z,19.65
2023-07-24T01:24:09.819Z,19.65
2023-07-24T01:25:30.865Z,19.58
2023-07-24T01:26:01.219Z,19.58
2023-07-24T01:27:00.750Z,19.58
2023-07-24T01:28:00.550Z,19.58
2023-07-24T01:29:00.534Z,19.58
2023-07-24T01:30:00.639Z,19.57
2023-07-24T01:31:01.170Z,19.57
2023-07-24T01:32:00.671Z,19.57
2023-07-24T01:33:00.874Z,19.57
2023-07-24T01:34:00.540Z,19.57
2023-07-24T01:35:00.524Z,19.54
2023-07-24T01:36:01.730Z,19.54
2023-07-24T01:37:00.749Z,19.54
2023-07-24T01:38:02.617Z,19.54
2023-07-24T01:39:00.693Z,19.54
2023-07-24T01:40:00.711Z,19.59
2023-07-24T01:41:00.659Z,19.59
2023-07-24T01:42:00.858Z,19.59
2023-07-24T01:43:00.558Z,19.59
2023-07-24T01:44:00.616Z,19.59
2023-07-24T01:45:02.077Z,19.57
2023-07-24T01:46:00.623Z,19.57
2023-07-24T01:47:00.585Z,19.57
2023-07-24T01:48:00.642Z,19.57
2023-07-24T01:49:00.522Z,19.57
2023-07-24T01:50:00.545Z,19.55
2023-07-24T01:51:00.514Z,19.55
2023-07-24T01:52:00.580Z,19.55
2023-07-24T01:53:00.556Z,19.55
2023-07-24T01:54:00.556Z,19.55
2023-07-24T01:55:00.540Z,19.49
2023-07-24T01:56:00.634Z,19.49
2023-07-24T01:57:01.759Z,19.49
2023-07-24T01:58:00.554Z,19.49
2023-07-24T01:59:00.568Z,19.49
2023-07-24T02:00:00.551Z,19.47
2023-07-24T02:01:00.563Z,19.47
2023-07-24T02:02:00.609Z,19.47
2023-07-24T02:03:00.659Z,19.47
2023-07-24T02:04:00.706Z,19.47
2023-07-24T02:05:00.521Z,19.44
2023-07-24T02:06:00.535Z,19.44
2023-07-24T02:07:00.531Z,19.44
2023-07-24T02:08:00.519Z,19.44
2023-07-24T02:09:00.551Z,19.44
2023-07-24T02:10:00.776Z,19.47
2023-07-24T02:11:00.553Z,19.47
2023-07-24T02:12:00.564Z,19.47
2023-07-24T02:13:00.574Z,19.47
2023-07-24T02:14:00.550Z,19.47
2023-07-24T02:15:00.778Z,19.47
2023-07-24T02:16:00.540Z,19.47
2023-07-24T02:17:00.532Z,19.47
2023-07-24T02:18:00.565Z,19.47
2023-07-24T02:19:00.525Z,19.47
2023-07-24T02:20:00.524Z,19.36
2023-07-24T02:21:00.533Z,19.36
2023-07-24T02:22:00.547Z,19.36
2023-07-24T02:23:00.563Z,19.36
2023-07-24T02:24:00.524Z,19.36
2023-07-24T02:25:00.535Z,19.14
2023-07-24T02:26:00.721Z,19.14
2023-07-24T02:27:00.638Z,19.14
2023-07-24T02:28:00.541Z,19.14
2023-07-24T02:29:00.543Z,19.14
2023-07-24T02:30:00.837Z,19.14
2023-07-24T02:31:00.539Z,19.14
2023-07-24T02:32:00.607Z,19.14
2023-07-24T02:33:00.568Z,19.14
2023-07-24T02:34:00.613Z,19.14
2023-07-24T02:35:00.659Z,19.17
2023-07-24T02:36:00.722Z,19.17
2023-07-24T02:37:00.519Z,19.17
2023-07-24T02:38:00.532Z,19.17
2023-07-24T02:39:00.517Z,19.17
2023-07-24T02:40:00.587Z,19.11
2023-07-24T02:41:00.518Z,19.11
2023-07-24T02:42:00.528Z,19.11
2023-07-24T02:43:00.581Z,19.11
2023-07-24T02:44:01.986Z,19.11
2023-07-24T02:45:00.565Z,18.92
2023-07-24T02:46:01.317Z,18.92
2023-07-24T02:47:00.551Z,18.92
2023-07-24T02:48:00.594Z,18.92
2023-07-24T02:49:00.571Z,18.92
2023-07-24T02:50:00.538Z,18.74
2023-07-24T02:51:00.520Z,18.74
2023-07-24T02:52:00.529Z,18.74
2023-07-24T02:53:00.736Z,18.74
2023-07-24T02:54:00.530Z,18.74
2023-07-24T02:55:00.542Z,18.60
2023-07-24T02:56:01.228Z,18.60
2023-07-24T02:57:00.528Z,18.60
2023-07-24T02:58:00.544Z,18.60
2023-07-24T02:59:00.536Z,18.60
2023-07-24T03:00:00.530Z,18.49
2023-07-24T03:01:04.237Z,18.49
2023-07-24T03:02:00.535Z,18.49
2023-07-24T03:03:00.565Z,18.49
2023-07-24T03:04:00.539Z,18.49
2023-07-24T03:05:00.551Z,18.43
2023-07-24T03:06:00.630Z,18.43
2023-07-24T03:07:00.569Z,18.43
2023-07-24T03:08:00.571Z,18.43
2023-07-24T03:09:00.552Z,18.43
2023-07-24T03:10:00.593Z,18.24
2023-07-24T03:11:00.629Z,18.24
2023-07-24T03:12:00.544Z,18.24
2023-07-24T03:13:00.594Z,18.24
2023-07-24T03:14:00.517Z,18.24
2023-07-24T03:15:00.540Z,18.25
2023-07-24T03:16:00.608Z,18.25
2023-07-24T03:17:03.144Z,18.25
2023-07-24T03:18:00.635Z,18.25
2023-07-24T03:19:00.599Z,18.25
2023-07-24T03:20:07.710Z,18.29
2023-07-24T03:21:00.616Z,18.29
2023-07-24T03:22:00.531Z,18.29
2023-07-24T03:23:00.524Z,18.29
2023-07-24T03:24:00.517Z,18.29
2023-07-24T03:25:00.593Z,18.23
2023-07-24T03:26:00.542Z,18.23
2023-07-24T03:27:00.669Z,18.23
2023-07-24T03:28:00.509Z,18.23
2023-07-24T03:29:00.561Z,18.23
2023-07-24T03:30:00.622Z,18.08
2023-07-24T03:31:00.585Z,18.08
2023-07-24T03:32:00.561Z,18.08
2023-07-24T03:33:01.327Z,18.08
2023-07-24T03:34:00.561Z,18.08
2023-07-24T03:35:00.569Z,17.78
2023-07-24T03:36:00.525Z,17.78
2023-07-24T03:37:00.557Z,17.78
2023-07-24T03:38:00.533Z,17.78
2023-07-24T03:39:00.525Z,17.78
2023-07-24T03:40:00.571Z,17.29
2023-07-24T03:41:00.518Z,17.29
2023-07-24T03:42:01.952Z,17.29
2023-07-24T03:43:00.558Z,17.29
2023-07-24T03:44:00.536Z,17.29
2023-07-24T03:45:00.526Z,16.96
2023-07-24T03:46:00.550Z,16.96
2023-07-24T03:47:00.768Z,16.96
2023-07-24T03:48:00.593Z,16.96
2023-07-24T03:49:00.660Z,16.96
2023-07-24T03:50:00.573Z,16.86
2023-07-24T03:51:01.045Z,16.86
2023-07-24T03:52:00.597Z,16.86
2023-07-24T03:53:00.576Z,16.86
2023-07-24T03:54:00.536Z,16.86
2023-07-24T03:55:00.552Z,16.68
2023-07-24T03:56:00.545Z,16.68
2023-07-24T03:57:00.550Z,16.68
2023-07-24T03:58:00.556Z,16.68
2023-07-24T03:59:00.525Z,16.68
2023-07-24T04:00:00.766Z,16.47
2023-07-24T04:01:00.608Z,16.47
2023-07-24T04:02:00.951Z,16.47
2023-07-24T04:03:00.730Z,16.47
2023-07-24T04:04:00.687Z,16.47
2023-07-24T04:05:00.559Z,16.43
2023-07-24T04:06:00.619Z,16.43
2023-07-24T04:07:00.561Z,16.43
2023-07-24T04:08:00.569Z,16.43
2023-07-24T04:09:00.594Z,16.43
2023-07-24T04:10:00.562Z,16.33
2023-07-24T04:11:00.613Z,16.33
2023-07-24T04:12:00.849Z,16.33
2023-07-24T04:13:00.576Z,16.33
2023-07-24T04:14:00.536Z,16.33
2023-07-24T04:15:00.551Z,16.50
2023-07-24T04:16:00.614Z,16.50
2023-07-24T04:17:00.546Z,16.50
2023-07-24T04:18:00.664Z,16.50
2023-07-24T04:19:00.734Z,16.50
2023-07-24T04:20:00.533Z,16.39
2023-07-24T04:21:00.546Z,16.39
2023-07-24T04:22:00.554Z,16.39
2023-07-24T04:23:00.525Z,16.39
2023-07-24T04:24:00.614Z,16.39
2023-07-24T04:25:00.561Z,16.41
2023-07-24T04:26:00.586Z,16.41
2023-07-24T04:27:00.527Z,16.41
2023-07-24T04:28:00.535Z,16.41
2023-07-24T04:29:00.547Z,16.41
2023-07-24T04:30:00.582Z,15.93
2023-07-24T04:31:00.855Z,15.93
2023-07-24T04:32:00.556Z,15.93
2023-07-24T04:33:00.556Z,15.93
2023-07-24T04:34:00.615Z,15.93
2023-07-24T04:35:00.576Z,16.14
2023-07-24T04:36:00.577Z,16.14
2023-07-24T04:37:00.575Z,16.14
2023-07-24T04:38:00.524Z,16.14
2023-07-24T04:39:00.546Z,16.14
2023-07-24T04:40:00.729Z,16.13
2023-07-24T04:41:01.101Z,16.13
2023-07-24T04:42:00.516Z,16.13
2023-07-24T04:43:00.538Z,16.13
2023-07-24T04:44:00.530Z,16.13
2023-07-24T04:45:00.567Z,16.25
2023-07-24T04:46:00.537Z,16.25
2023-07-24T04:47:00.634Z,16.25
2023-07-24T04:48:00.609Z,16.25
2023-07-24T04:49:00.544Z,16.25
2023-07-24T04:50:00.559Z,16.18
2023-07-24T04:51:00.529Z,16.18
2023-07-24T04:52:00.515Z,16.18
2023-07-24T04:53:00.605Z,16.18
2023-07-24T04:54:00.535Z,16.18
2023-07-24T04:55:00.563Z,16.05
2023-07-24T04:56:00.563Z,16.05
2023-07-24T04:57:00.552Z,16.05
2023-07-24T04:58:00.580Z,16.05
2023-07-24T04:59:00.554Z,16.05
2023-07-24T05:00:00.543Z,16.05
2023-07-24T05:01:04.011Z,16.05
2023-07-24T05:02:00.541Z,16.05
2023-07-24T05:03:00.798Z,16.05
2023-07-24T05:04:00.762Z,16.05
2023-07-24T05:05:00.542Z,16.14
2023-07-24T05:06:00.545Z,16.14
2023-07-24T05:07:00.527Z,16.14
2023-07-24T05:08:00.702Z,16.14
2023-07-24T05:09:00.723Z,16.14
2023-07-24T05:10:00.656Z,15.98
2023-07-24T05:11:00.553Z,15.98
2023-07-24T05:12:00.545Z,15.98
2023-07-24T05:13:00.619Z,15.98
2023-07-24T05:14:00.534Z,15.98
2023-07-24T05:15:00.519Z,15.97
2023-07-24T05:16:00.624Z,15.97
2023-07-24T05:17:00.521Z,15.97
2023-07-24T05:18:00.579Z,15.97
2023-07-24T05:19:00.582Z,15.97
2023-07-24T05:20:00.583Z,15.95
2023-07-24T05:21:00.548Z,15.95
2023-07-24T05:22:00.582Z,15.95
2023-07-24T05:23:00.527Z,15.95
2023-07-24T05:24:00.516Z,15.95
2023-07-24T05:25:00.846Z,15.76
2023-07-24T05:26:01.541Z,15.76
2023-07-24T05:27:00.521Z,15.76
2023-07-24T05:28:00.541Z,15.76
2023-07-24T05:29:00.540Z,15.76
2023-07-24T05:30:00.614Z,15.91
2023-07-24T05:31:02.095Z,15.91
2023-07-24T05:32:00.541Z,15.91
2023-07-24T05:33:00.576Z,15.91
2023-07-24T05:34:00.578Z,15.91
2023-07-24T05:35:00.560Z,15.84
2023-07-24T05:36:01.161Z,15.84
2023-07-24T05:37:00.673Z,15.84
2023-07-24T05:38:00.555Z,15.84
2023-07-24T05:39:00.604Z,15.84
2023-07-24T05:40:00.544Z,15.67
2023-07-24T05:41:02.674Z,15.67
2023-07-24T05:42:00.559Z,15.67
2023-07-24T05:43:00.639Z,15.67
2023-07-24T05:44:00.568Z,15.67
2023-07-24T05:45:00.536Z,15.51
2023-07-24T05:46:00.546Z,15.51
2023-07-24T05:47:00.523Z,15.51
2023-07-24T05:48:00.611Z,15.51
2023-07-24T05:49:00.567Z,15.51
2023-07-24T05:50:00.645Z,15.58
2023-07-24T05:51:00.565Z,15.58
2023-07-24T05:52:00.632Z,15.58
2023-07-24T05:53:00.534Z,15.58
2023-07-24T05:54:00.574Z,15.58
2023-07-24T05:55:00.671Z,15.76
2023-07-24T05:56:01.176Z,15.76
2023-07-24T05:57:00.548Z,15.76
2023-07-24T05:58:00.610Z,15.76
2023-07-24T05:59:00.548Z,15.76
2023-07-24T06:00:02.187Z,15.69
2023-07-24T06:01:00.723Z,15.69
2023-07-24T06:02:00.533Z,15.69
2023-07-24T06:03:00.586Z,15.69
2023-07-24T06:04:00.598Z,15.69
2023-07-24T06:05:00.659Z,15.67
2023-07-24T06:06:00.553Z,15.67
2023-07-24T06:07:00.529Z,15.67
2023-07-24T06:08:00.540Z,15.67
2023-07-24T06:09:00.535Z,15.67
2023-07-24T06:10:00.558Z,15.70
2023-07-24T06:11:00.559Z,15.70
2023-07-24T06:12:00.523Z,15.70
2023-07-24T06:13:00.540Z,15.70
2023-07-24T06:14:00.611Z,15.70
2023-07-24T06:15:00.536Z,15.73
2023-07-24T06:16:00.611Z,15.73
2023-07-24T06:17:00.583Z,15.73
2023-07-24T06:18:00.711Z,15.73
2023-07-24T06:19:00.537Z,15.73
2023-07-24T06:20:00.534Z,15.71
2023-07-24T06:21:00.549Z,15.71
2023-07-24T06:22:00.517Z,15.71
2023-07-24T06:23:00.519Z,15.71
2023-07-24T06:24:00.520Z,15.71
2023-07-24T06:25:00.562Z,15.66
2023-07-24T06:26:00.726Z,15.66
2023-07-24T06:27:00.595Z,15.66
2023-07-24T06:28:00.558Z,15.66
2023-07-24T06:29:00.542Z,15.66
2023-07-24T06:30:13.136Z,15.72
2023-07-24T06:31:00.535Z,15.72
2023-07-24T06:32:00.557Z,15.72
2023-07-24T06:33:00.556Z,15.72
2023-07-24T06:34:00.548Z,15.72
2023-07-24T06:35:00.521Z,15.68
2023-07-24T06:36:00.700Z,15.68
2023-07-24T06:37:12.764Z,15.68
2023-07-24T06:38:00.656Z,15.68
2023-07-24T06:39:00.549Z,15.68
2023-07-24T06:40:00.620Z,15.70
2023-07-24T06:41:00.539Z,15.70
2023-07-24T06:42:00.558Z,15.70
2023-07-24T06:43:00.763Z,15.70
2023-07-24T06:44:00.541Z,15.70
2023-07-24T06:45:00.712Z,15.57
2023-07-24T06:46:00.570Z,15.57
2023-07-24T06:47:00.563Z,15.57
2023-07-24T06:48:00.611Z,15.57
2023-07-24T06:49:00.527Z,15.57
2023-07-24T06:50:00.542Z,15.62
2023-07-24T06:51:00.636Z,15.62
2023-07-24T06:52:00.528Z,15.62
2023-07-24T06:53:00.536Z,15.62
2023-07-24T06:54:00.534Z,15.62
2023-07-24T06:55:00.893Z,15.44
2023-07-24T06:56:00.532Z,15.44
2023-07-24T06:57:00.537Z,15.44
2023-07-24T06:58:00.618Z,15.44
2023-07-24T06:59:00.593Z,15.44
2023-07-24T07:00:00.553Z,15.42
2023-07-24T07:01:05.027Z,15.42
2023-07-24T07:02:00.595Z,15.42
2023-07-24T07:03:00.552Z,15.42
2023-07-24T07:04:00.557Z,15.42
2023-07-24T07:05:00.523Z,15.43
2023-07-24T07:06:00.764Z,15.43
2023-07-24T07:07:00.523Z,15.43
2023-07-24T07:08:01.555Z,15.43
2023-07-24T07:09:00.580Z,15.43
2023-07-24T07:10:00.728Z,15.46
2023-07-24T07:11:01.210Z,15.46
2023-07-24T07:12:00.536Z,15.46
2023-07-24T07:13:00.629Z,15.46
2023-07-24T07:14:00.592Z,15.46
2023-07-24T07:15:00.631Z,15.53
2023-07-24T07:16:00.821Z,15.53
2023-07-24T07:17:00.556Z,15.53
2023-07-24T07:18:00.601Z,15.53
2023-07-24T07:19:00.708Z,15.53
2023-07-24T07:20:00.552Z,15.49
2023-07-24T07:21:00.570Z,15.49
2023-07-24T07:22:00.547Z,15.49
2023-07-24T07:23:00.533Z,15.49
2023-07-24T07:24:00.559Z,15.49
2023-07-24T07:25:00.580Z,15.49
2023-07-24T07:26:00.534Z,15.49
2023-07-24T07:27:00.528Z,15.49
2023-07-24T07:28:00.530Z,15.49
2023-07-24T07:29:00.536Z,15.49
2023-07-24T07:30:00.532Z,15.40
2023-07-24T07:31:00.614Z,15.40
2023-07-24T07:32:00.630Z,15.40
2023-07-24T07:33:00.647Z,15.40
2023-07-24T07:34:00.536Z,15.40
2023-07-24T07:35:00.569Z,15.32
2023-07-24T07:36:00.536Z,15.32
2023-07-24T07:37:00.535Z,15.32
2023-07-24T07:38:00.580Z,15.32
2023-07-24T07:39:00.555Z,15.32
2023-07-24T07:40:01.889Z,15.46
2023-07-24T07:41:03.884Z,15.46
2023-07-24T07:42:12.343Z,15.46
2023-07-24T07:43:00.618Z,15.46
2023-07-24T07:44:00.524Z,15.46
2023-07-24T07:45:00.646Z,15.50
2023-07-24T07:46:00.538Z,15.50
2023-07-24T07:47:00.541Z,15.50
2023-07-24T07:48:00.550Z,15.50
2023-07-24T07:49:00.783Z,15.50
2023-07-24T07:50:00.580Z,15.33
2023-07-24T07:51:00.534Z,15.33
2023-07-24T07:52:00.518Z,15.33
2023-07-24T07:53:00.515Z,15.33
2023-07-24T07:54:00.670Z,15.33
2023-07-24T07:55:00.886Z,15.40
2023-07-24T07:56:00.535Z,15.40
2023-07-24T07:57:00.549Z,15.40
2023-07-24T07:58:00.528Z,15.40
2023-07-24T07:59:00.555Z,15.40
2023-07-24T08:00:00.613Z,15.38
2023-07-24T08:01:04.412Z,15.38
2023-07-24T08:02:00.528Z,15.38
2023-07-24T08:03:00.601Z,15.38
2023-07-24T08:04:00.650Z,15.38
2023-07-24T08:05:08.908Z,15.13
2023-07-24T08:06:00.570Z,15.13
2023-07-24T08:07:00.557Z,15.13
2023-07-24T08:08:00.643Z,15.13
2023-07-24T08:09:00.632Z,15.13
2023-07-24T08:10:00.551Z,15.29
2023-07-24T08:11:03.956Z,15.29
2023-07-24T08:12:00.781Z,15.29
2023-07-24T08:13:00.590Z,15.29
2023-07-24T08:14:00.555Z,15.29
2023-07-24T08:15:00.698Z,15.49
2023-07-24T08:16:00.612Z,15.49
2023-07-24T08:17:00.689Z,15.49
2023-07-24T08:18:00.684Z,15.49
2023-07-24T08:19:00.632Z,15.49
2023-07-24T08:20:00.651Z,15.46
2023-07-24T08:21:00.567Z,15.46
2023-07-24T08:22:00.641Z,15.46
2023-07-24T08:23:00.600Z,15.46
2023-07-24T08:24:01.109Z,15.46
2023-07-24T08:25:00.736Z,15.55
2023-07-24T08:26:00.588Z,15.55
2023-07-24T08:27:00.801Z,15.55
2023-07-24T08:28:05.164Z,15.55
2023-07-24T08:29:00.605Z,15.55
2023-07-24T08:30:00.633Z,15.62
2023-07-24T08:31:02.595Z,15.62
2023-07-24T08:32:00.973Z,15.62
2023-07-24T08:33:00.833Z,15.62
2023-07-24T08:34:00.814Z,15.62
2023-07-24T08:35:00.644Z,15.73
2023-07-24T08:36:01.494Z,15.73
2023-07-24T08:37:00.824Z,15.73
2023-07-24T08:38:00.604Z,15.73
2023-07-24T08:39:00.630Z,15.73
2023-07-24T08:40:00.634Z,15.76
2023-07-24T08:41:08.677Z,15.76
2023-07-24T08:42:07.636Z,15.76
2023-07-24T08:43:00.774Z,15.76
2023-07-24T08:44:01.196Z,15.76
2023-07-24T08:45:01.307Z,15.54
2023-07-24T08:46:00.902Z,15.54
2023-07-24T08:47:01.866Z,15.54
2023-07-24T08:48:01.579Z,15.54
2023-07-24T08:49:01.209Z,15.54
2023-07-24T08:50:01.028Z,15.79
2023-07-24T08:51:01.413Z,15.79
2023-07-24T08:52:02.166Z,15.79
2023-07-24T08:53:02.165Z,15.79
2023-07-24T08:54:01.185Z,15.79
2023-07-24T08:55:02.057Z,15.97
2023-07-24T08:56:02.029Z,15.97
2023-07-24T08:57:01.808Z,15.97
2023-07-24T08:58:02.039Z,15.97
2023-07-24T08:59:00.675Z,15.97
2023-07-24T09:00:00.945Z,15.86
2023-07-24T09:01:01.504Z,15.86
2023-07-24T09:02:01.057Z,15.86
2023-07-24T09:03:00.718Z,15.86
2023-07-24T09:04:00.769Z,15.86
2023-07-24T09:05:01.046Z,15.84
2023-07-24T09:06:00.944Z,15.84
2023-07-24T09:07:00.689Z,15.84
2023-07-24T09:08:00.777Z,15.84
2023-07-24T09:09:00.628Z,15.84
2023-07-24T09:10:00.698Z,15.91
2023-07-24T09:11:01.655Z,15.91
2023-07-24T09:12:00.652Z,15.91
2023-07-24T09:13:00.654Z,15.91
2023-07-24T09:14:00.574Z,15.91
2023-07-24T09:15:01.714Z,16.22
2023-07-24T09:16:00.605Z,16.22
2023-07-24T09:17:02.411Z,16.22
2023-07-24T09:18:00.643Z,16.22
2023-07-24T09:19:11.231Z,16.22
2023-07-24T09:20:00.561Z,16.30
2023-07-24T09:21:00.556Z,16.30
2023-07-24T09:22:16.363Z,16.30
2023-07-24T09:24:15.902Z,16.30
2023-07-24T09:25:00.664Z,16.26
2023-07-24T09:26:05.506Z,16.26
2023-07-24T09:27:00.868Z,16.26
2023-07-24T09:28:00.862Z,16.26
2023-07-24T09:29:00.565Z,16.26
2023-07-24T09:30:00.985Z,16.09
2023-07-24T09:31:00.955Z,16.09
2023-07-24T09:32:00.790Z,16.09
2023-07-24T09:33:00.575Z,16.09
2023-07-24T09:34:00.867Z,16.09
2023-07-24T09:35:00.545Z,15.93
2023-07-24T09:36:00.938Z,15.93
2023-07-24T09:37:00.524Z,15.93
2023-07-24T09:38:02.725Z,15.93
2023-07-24T09:39:00.550Z,15.93
2023-07-24T09:40:03.769Z,16.01
2023-07-24T09:41:01.294Z,16.01
2023-07-24T09:42:04.073Z,16.01
2023-07-24T09:43:30.005Z,16.01
2023-07-24T09:44:00.571Z,16.01
2023-07-24T09:45:01.176Z,16.22
2023-07-24T09:46:00.551Z,16.22
2023-07-24T09:47:08.206Z,16.22
2023-07-24T09:48:04.133Z,16.22
2023-07-24T09:50:03.039Z,16.21
2023-07-24T09:51:00.915Z,16.21
2023-07-24T09:52:03.485Z,16.21
2023-07-24T09:53:00.897Z,16.21
2023-07-24T09:54:21.437Z,16.21
2023-07-24T09:55:21.620Z,15.98
2023-07-24T09:56:05.110Z,15.98
2023-07-24T09:57:11.089Z,15.98
2023-07-24T09:58:00.666Z,15.98
2023-07-24T09:59:02.181Z,15.98
2023-07-24T10:00:00.665Z,15.76
2023-07-24T10:01:02.441Z,15.76
2023-07-24T10:02:01.298Z,15.76
2023-07-24T10:03:01.357Z,15.76
2023-07-24T10:04:01.451Z,15.76
2023-07-24T10:05:00.553Z,15.67
2023-07-24T10:06:01.286Z,15.67
2023-07-24T10:07:00.685Z,15.67
2023-07-24T10:08:00.536Z,15.67
2023-07-24T10:09:00.545Z,15.67
2023-07-24T10:10:01.243Z,15.49
2023-07-24T10:11:00.880Z,15.49
2023-07-24T10:12:01.455Z,15.49
2023-07-24T10:13:00.676Z,15.49
2023-07-24T10:14:01.327Z,15.49
2023-07-24T10:15:01.420Z,15.57
2023-07-24T10:16:00.564Z,15.57
2023-07-24T10:17:00.537Z,15.57
2023-07-24T10:18:01.704Z,15.57
2023-07-24T10:19:00.521Z,15.57
2023-07-24T10:20:03.630Z,15.70
2023-07-24T10:21:01.752Z,15.70
2023-07-24T10:22:00.670Z,15.70
2023-07-24T10:23:01.370Z,15.70
2023-07-24T10:24:00.596Z,15.70
2023-07-24T10:25:00.764Z,15.54
2023-07-24T10:26:04.249Z,15.54
2023-07-24T10:27:02.370Z,15.54
2023-07-24T10:28:04.245Z,15.54
2023-07-24T10:29:00.622Z,15.54
2023-07-24T10:30:08.897Z,15.62
2023-07-24T10:31:01.493Z,15.62
2023-07-24T10:32:00.779Z,15.62
2023-07-24T10:33:08.021Z,15.62
2023-07-24T10:34:04.283Z,15.62
2023-07-24T10:35:06.956Z,15.70
2023-07-24T10:36:04.742Z,15.70
2023-07-24T10:37:06.558Z,15.70
2023-07-24T10:38:02.211Z,15.70
2023-07-24T10:39:00.568Z,15.70
2023-07-24T10:40:00.580Z,15.65
2023-07-24T10:41:02.376Z,15.65
2023-07-24T10:42:04.974Z,15.65
2023-07-24T10:43:01.046Z,15.65
2023-07-24T10:44:00.520Z,15.65
2023-07-24T10:45:03.798Z,15.72
2023-07-24T10:46:00.577Z,15.72
2023-07-24T10:47:01.183Z,15.72
2023-07-24T10:48:00.564Z,15.72
2023-07-24T10:49:00.784Z,15.72
2023-07-24T10:50:00.633Z,15.76
2023-07-24T10:51:05.645Z,15.76
2023-07-24T10:52:00.555Z,15.76
2023-07-24T10:53:01.628Z,15.76
2023-07-24T10:54:02.147Z,15.76
2023-07-24T10:55:01.108Z,15.92
2023-07-24T10:56:00.567Z,15.92
2023-07-24T10:57:00.544Z,15.92
2023-07-24T10:58:00.550Z,15.92
2023-07-24T10:59:07.767Z,15.92
2023-07-24T11:00:00.554Z,15.82
2023-07-24T11:01:00.582Z,15.82
2023-07-24T11:02:00.884Z,15.82
2023-07-24T11:03:00.915Z,15.82
2023-07-24T11:04:00.714Z,15.82
2023-07-24T11:05:00.612Z,15.94
2023-07-24T11:06:01.877Z,15.94
2023-07-24T11:07:01.107Z,15.94
2023-07-24T11:08:00.576Z,15.94
2023-07-24T11:09:00.754Z,15.94
2023-07-24T11:10:00.540Z,15.97
2023-07-24T11:11:00.543Z,15.97
2023-07-24T11:12:08.677Z,15.97
2023-07-24T11:13:00.551Z,15.97
2023-07-24T11:14:01.396Z,15.97
2023-07-24T11:15:00.536Z,16.19
2023-07-24T11:16:05.038Z,16.19
2023-07-24T11:17:00.542Z,16.19
2023-07-24T11:18:00.570Z,16.19
2023-07-24T11:19:00.559Z,16.19
2023-07-24T11:20:08.474Z,16.07
2023-07-24T11:21:00.545Z,16.07
2023-07-24T11:22:00.585Z,16.07
2023-07-24T11:23:00.547Z,16.07
2023-07-24T11:24:06.314Z,16.07
2023-07-24T11:25:00.592Z,16.11
2023-07-24T11:26:00.546Z,16.11
2023-07-24T11:27:00.523Z,16.11
2023-07-24T11:28:00.689Z,16.11
2023-07-24T11:29:00.558Z,16.11
2023-07-24T11:30:00.535Z,16.15
2023-07-24T11:31:03.578Z,16.15
2023-07-24T11:32:00.532Z,16.15
2023-07-24T11:33:01.880Z,16.15
2023-07-24T11:34:00.586Z,16.15
2023-07-24T11:35:00.954Z,16.27
2023-07-24T11:36:00.573Z,16.27
2023-07-24T11:37:00.992Z,16.27
2023-07-24T11:38:01.050Z,16.27
2023-07-24T11:39:00.546Z,16.27
2023-07-24T11:40:01.486Z,16.63
2023-07-24T11:41:02.357Z,16.63
2023-07-24T11:42:01.141Z,16.63
2023-07-24T11:43:00.547Z,16.63
2023-07-24T11:44:00.554Z,16.63
2023-07-24T11:45:01.426Z,16.86
2023-07-24T11:46:00.533Z,16.86
2023-07-24T11:47:02.414Z,16.86
2023-07-24T11:48:00.570Z,16.86
2023-07-24T11:49:00.548Z,16.86
2023-07-24T11:50:00.664Z,16.84
2023-07-24T11:51:00.527Z,16.84
2023-07-24T11:52:01.260Z,16.84
2023-07-24T11:53:00.520Z,16.84
2023-07-24T11:54:04.988Z,16.84
2023-07-24T11:55:00.516Z,16.89
2023-07-24T11:56:00.628Z,16.89
2023-07-24T11:57:00.559Z,16.89
2023-07-24T11:58:01.348Z,16.89
2023-07-24T11:59:15.965Z,16.89
2023-07-24T12:00:00.547Z,16.91
2023-07-24T12:01:00.548Z,16.91
2023-07-24T12:02:01.011Z,16.91
2023-07-24T12:03:00.723Z,16.91
2023-07-24T12:04:00.704Z,16.91
2023-07-24T12:05:00.708Z,17.01
2023-07-24T12:06:00.521Z,17.01
2023-07-24T12:07:00.566Z,17.01
2023-07-24T12:08:04.684Z,17.01
2023-07-24T12:09:04.359Z,17.01
2023-07-24T12:10:01.146Z,17.10
2023-07-24T12:11:01.339Z,17.10
2023-07-24T12:12:02.998Z,17.10
2023-07-24T12:13:00.912Z,17.10
2023-07-24T12:14:00.531Z,17.10
2023-07-24T12:15:00.548Z,17.27
2023-07-24T12:16:00.563Z,17.27
2023-07-24T12:17:01.422Z,17.27
2023-07-24T12:18:01.052Z,17.27
2023-07-24T12:19:00.528Z,17.27
2023-07-24T12:20:00.687Z,17.31
2023-07-24T12:21:00.531Z,17.31
2023-07-24T12:22:00.528Z,17.31
2023-07-24T12:23:00.563Z,17.31
2023-07-24T12:24:00.539Z,17.31
2023-07-24T12:25:01.158Z,17.33
2023-07-24T12:26:00.554Z,17.33
2023-07-24T12:27:00.521Z,17.33
2023-07-24T12:28:00.625Z,17.33
2023-07-24T12:29:00.559Z,17.33
2023-07-24T12:30:00.937Z,17.64
2023-07-24T12:31:00.597Z,17.64
2023-07-24T12:32:00.538Z,17.64
2023-07-24T12:33:00.548Z,17.64
2023-07-24T12:34:00.538Z,17.64
2023-07-24T12:35:00.921Z,17.79
2023-07-24T12:36:00.546Z,17.79
2023-07-24T12:37:00.549Z,17.79
2023-07-24T12:38:01.501Z,17.79
2023-07-24T12:39:00.633Z,17.79
2023-07-24T12:40:00.762Z,18.13
2023-07-24T12:41:00.529Z,18.13
2023-07-24T12:42:00.533Z,18.13
2023-07-24T12:43:00.541Z,18.13
2023-07-24T12:44:01.157Z,18.13
2023-07-24T12:45:00.532Z,18.17
2023-07-24T12:46:00.532Z,18.17
2023-07-24T12:47:00.597Z,18.17
2023-07-24T12:48:00.607Z,18.17
2023-07-24T12:49:00.509Z,18.17
2023-07-24T12:50:00.910Z,18.38
2023-07-24T12:51:00.677Z,18.38
2023-07-24T12:52:00.578Z,18.38
2023-07-24T12:53:02.038Z,18.38
2023-07-24T12:54:07.912Z,18.38